• Join FlightAware (Why Join?)
  • Login
  • US Flag 
05:42PM EDT


 

Airport Tracker/Info


-or-


 

Live Flight TrackerFlight Track Log ✈ SKW5294 ✈ 28-Jun-2013 ✈ KLAX - KCRQ

Flight Track Log - Related Links

Times and Time Zones

All times are in EDT time to prevent confusion due to time zone crossing. See the SKW5294 flight status page for this flight to view local times or setup timezone preferences in your user account.

Time Position Orientation Groundspeed Altitude Reporting Facility
EDT Latitude Longitude Course Direction KTS MPH feet Rate Location/Type
07:03PM 33.9167 -118.4667 129° Southeast 193 222 2,700  Level Southern California TRACON
07:04PM 33.8500 -118.4667 180° South 193 222 4,300 1,380 Climbing Southern California TRACON
07:05PM 33.8000 -118.4833 195° South 197 227 5,700 1,380 Climbing Southern California TRACON
07:06PM 33.6996 -118.0836 129° Southeast  Level FlightAware Approximate
07:06PM 33.7500 -118.4667 165° South 211 243 7,100  Level Southern California TRACON
07:07PM 33.6427 -118.0000 129° Southeast  Level FlightAware Approximate
07:07PM 33.7167 -118.4167 129° Southeast 212 244 8,200  Level Southern California TRACON
07:08PM 33.5858 -117.9165 129° Southeast  Level FlightAware Approximate
07:08PM 33.6833 -118.3500 121° Southeast 222 255 9,000  Level Southern California TRACON
07:09PM 33.5485 -117.8619 129° Southeast  Level FlightAware Approximate
07:09PM 33.6500 -118.2833 121° Southeast 249 287 9,000  Level Southern California TRACON
07:10PM 33.6167 -118.2000 116° Southeast 256 295 9,000  Level Southern California TRACON
07:11PM 33.5667 -118.1333 132° Southeast 263 303 9,000  Level Southern California TRACON
07:12PM 33.5333 -118.0500 116° Southeast 263 303 9,000 -600 Level Southern California TRACON
07:13PM 33.5000 -117.9667 116° Southeast 285 328 7,900 -1,260 Descending Southern California TRACON
07:14PM 33.4500 -117.9000 132° Southeast 298 343 6,600 -1,260 Descending Southern California TRACON
07:15PM 33.4417 -117.8650 106° East 288 331 6,100 -1,020 Descending Los Angeles Center
07:16PM 33.3903 -117.7625 121° Southeast 297 342 5,000 -540 Descending Los Angeles Center
07:17PM 33.3522 -117.6836 120° Southeast 288 331 5,000 -60 Level Los Angeles Center
07:18PM 33.3200 -117.6119 118° Southeast 267 307 4,900 -480 Descending Los Angeles Center
07:19PM 33.2883 -117.5333 116° Southeast 260 299 4,100 -780 Descending Los Angeles Center
07:20PM 33.2553 -117.4514 116° Southeast 266 306 3,300 -540 Descending Los Angeles Center
07:21PM 33.2231 -117.3508 111° Southeast 269 310 3,000 -60 Descending Los Angeles Center
07:22PM 33.2011 -117.2706 108° East 263 303 3,200 -240 Climbing Los Angeles Center
07:23PM 33.1667 -117.2167 127° Southeast 192 221 2,500 -600 Descending Southern California TRACON